createdAt,value
2022-08-05T00:00:16.107Z,22.86
2022-08-05T00:02:44.083Z,22.93
2022-08-05T00:06:01.594Z,23.00
2022-08-05T00:08:32.794Z,23.03
2022-08-05T00:10:56.199Z,23.02
2022-08-05T00:13:38.391Z,23.07
2022-08-05T00:16:08.434Z,23.06
2022-08-05T00:18:36.216Z,22.89
2022-08-05T00:21:06.899Z,22.74
2022-08-05T00:23:46.044Z,22.65
2022-08-05T00:26:20.630Z,22.61
2022-08-05T00:28:47.238Z,22.67
2022-08-05T00:31:16.028Z,22.69
2022-08-05T00:34:56.351Z,22.76
2022-08-05T00:37:09.017Z,22.87
2022-08-05T00:39:16.845Z,22.87
2022-08-05T00:41:51.838Z,22.85
2022-08-05T00:44:23.195Z,22.73
2022-08-05T00:47:04.056Z,22.61
2022-08-05T00:49:44.699Z,22.47
2022-08-05T00:52:17.923Z,22.58
2022-08-05T00:54:44.450Z,22.51
2022-08-05T00:57:11.069Z,22.42
2022-08-05T00:59:44.389Z,22.29
2022-08-05T01:02:11.352Z,22.23
2022-08-05T01:04:37.971Z,22.09
2022-08-05T01:07:08.943Z,22.34
2022-08-05T01:09:41.790Z,22.68
2022-08-05T01:12:18.195Z,22.98
2022-08-05T01:14:54.414Z,23.11
2022-08-05T01:17:31.835Z,23.26
2022-08-05T01:20:09.723Z,23.23
2022-08-05T01:22:59.541Z,23.23
2022-08-05T01:26:02.034Z,23.32
2022-08-05T01:28:39.365Z,23.35
2022-08-05T01:31:18.177Z,23.28
2022-08-05T01:34:05.372Z,23.20
2022-08-05T01:36:42.302Z,23.19
2022-08-05T01:39:15.818Z,23.23
2022-08-05T01:42:03.392Z,23.24
2022-08-05T01:44:34.195Z,23.25
2022-08-05T01:47:02.488Z,23.29
2022-08-05T01:50:00.092Z,23.21
2022-08-05T01:52:21.039Z,23.22
2022-08-05T01:54:58.848Z,23.13
2022-08-05T01:58:09.880Z,23.14
2022-08-05T02:00:19.810Z,23.10
2022-08-05T02:02:55.058Z,23.09
2022-08-05T02:05:24.934Z,23.11
2022-08-05T02:08:00.101Z,23.05
2022-08-05T02:10:34.696Z,23.00
2022-08-05T02:13:16.902Z,22.96
2022-08-05T02:15:47.546Z,22.95
2022-08-05T02:18:37.339Z,22.90
2022-08-05T02:21:21.904Z,22.87
2022-08-05T02:23:50.642Z,22.79
2022-08-05T02:26:22.300Z,22.67
2022-08-05T02:28:50.104Z,22.54
2022-08-05T02:31:24.527Z,22.47
2022-08-05T02:33:59.921Z,22.35
2022-08-05T02:36:27.920Z,22.34
2022-08-05T02:39:00.436Z,22.32
2022-08-05T02:41:28.604Z,22.32
2022-08-05T02:44:11.897Z,22.30
2022-08-05T02:46:43.877Z,22.22
2022-08-05T02:49:21.940Z,22.31
2022-08-05T02:52:02.967Z,22.40
2022-08-05T02:54:34.496Z,22.44
2022-08-05T02:57:10.266Z,22.37
2022-08-05T02:59:52.119Z,22.23
2022-08-05T03:02:20.742Z,22.13
2022-08-05T03:04:53.348Z,22.19
2022-08-05T03:08:00.073Z,22.11
2022-08-05T03:10:08.382Z,21.98
2022-08-05T03:12:37.315Z,21.90
2022-08-05T03:15:06.724Z,21.92
2022-08-05T03:17:41.695Z,21.79
2022-08-05T03:20:10.258Z,21.92
2022-08-05T03:22:37.095Z,22.11
2022-08-05T03:25:31.984Z,22.19
2022-08-05T03:27:59.401Z,22.26
2022-08-05T03:30:33.508Z,22.28
2022-08-05T03:33:04.021Z,22.20
2022-08-05T03:35:33.804Z,22.21
2022-08-05T03:38:01.129Z,22.22
2022-08-05T03:40:31.834Z,22.20
2022-08-05T03:43:15.959Z,22.06
2022-08-05T03:45:57.201Z,21.87
2022-08-05T03:48:26.641Z,21.90
2022-08-05T03:52:48.980Z,21.91
2022-08-05T03:55:51.688Z,21.87
2022-08-05T03:56:46.671Z,21.76
2022-08-05T03:59:29.148Z,21.54
2022-08-05T04:02:15.016Z,21.40
2022-08-05T04:04:44.898Z,21.36
2022-08-05T04:07:11.727Z,21.36
2022-08-05T04:09:53.434Z,21.34
2022-08-05T04:12:23.730Z,21.45
2022-08-05T04:14:51.507Z,21.58
2022-08-05T04:17:18.155Z,21.44
2022-08-05T04:19:46.753Z,21.27
2022-08-05T04:22:21.338Z,21.21
2022-08-05T04:24:52.603Z,21.18
2022-08-05T04:27:42.206Z,21.13
2022-08-05T04:30:08.720Z,21.13
2022-08-05T04:32:35.780Z,21.44
2022-08-05T04:35:03.950Z,21.50
2022-08-05T04:38:02.038Z,21.54
2022-08-05T04:40:19.786Z,21.59
2022-08-05T04:42:46.557Z,21.65
2022-08-05T04:45:23.058Z,21.66
2022-08-05T04:48:18.556Z,21.65
2022-08-05T04:51:03.365Z,21.73
2022-08-05T04:53:38.781Z,21.79
2022-08-05T04:56:33.837Z,21.78
2022-08-05T04:58:55.933Z,21.89
2022-08-05T05:01:33.465Z,22.00
2022-08-05T05:04:09.575Z,22.09
2022-08-05T05:06:44.521Z,22.07
2022-08-05T05:09:17.318Z,22.07
2022-08-05T05:11:54.571Z,22.10
2022-08-05T05:14:31.664Z,22.20
2022-08-05T05:17:03.298Z,22.22
2022-08-05T05:19:37.272Z,22.24
2022-08-05T05:22:23.406Z,22.24
2022-08-05T05:24:57.263Z,22.26
2022-08-05T05:27:25.247Z,22.38
2022-08-05T05:30:15.589Z,22.45
2022-08-05T05:32:56.092Z,22.56
2022-08-05T05:35:22.987Z,22.68
2022-08-05T05:38:00.285Z,22.75
2022-08-05T05:40:29.428Z,22.85
2022-08-05T05:42:56.790Z,22.91
2022-08-05T05:45:24.677Z,22.99
2022-08-05T05:48:06.724Z,23.06
2022-08-05T05:50:44.108Z,23.12
2022-08-05T05:53:22.571Z,23.18
2022-08-05T05:55:51.812Z,23.27
2022-08-05T05:58:31.681Z,23.33
2022-08-05T06:01:12.189Z,23.41
2022-08-05T06:03:53.659Z,23.44
2022-08-05T06:06:30.843Z,23.69
2022-08-05T06:08:58.598Z,23.65
2022-08-05T06:11:25.992Z,23.66
2022-08-05T06:13:54.265Z,23.78
2022-08-05T06:16:30.495Z,23.94
2022-08-05T06:19:01.087Z,24.06
2022-08-05T06:21:36.889Z,24.18
2022-08-05T06:24:11.813Z,24.20
2022-08-05T06:26:52.061Z,24.14
2022-08-05T06:29:25.221Z,24.33
2022-08-05T06:32:21.183Z,24.62
2022-08-05T06:34:53.482Z,24.43
2022-08-05T06:37:39.402Z,24.54
2022-08-05T06:40:07.748Z,24.53
2022-08-05T06:42:34.298Z,24.65
2022-08-05T06:45:06.457Z,24.60
2022-08-05T06:48:46.945Z,24.40
2022-08-05T06:50:21.967Z,24.52
2022-08-05T06:53:03.986Z,24.49
2022-08-05T06:55:36.412Z,24.65
2022-08-05T06:58:19.780Z,24.74
2022-08-05T07:00:47.175Z,25.08
2022-08-05T07:03:14.064Z,25.47
2022-08-05T07:05:43.520Z,25.60
2022-08-05T07:08:12.899Z,25.24
2022-08-05T07:10:52.345Z,25.24
2022-08-05T07:13:56.823Z,25.20
2022-08-05T07:17:56.846Z,24.99
2022-08-05T07:22:17.025Z,24.93
2022-08-05T07:24:43.763Z,24.93
2022-08-05T07:27:10.669Z,24.77
2022-08-05T07:30:28.132Z,24.82
2022-08-05T07:32:24.286Z,25.26
2022-08-05T07:34:57.947Z,25.49
2022-08-05T07:37:25.473Z,25.72
2022-08-05T07:40:26.706Z,25.67
2022-08-05T07:42:50.112Z,25.80
2022-08-05T07:45:16.676Z,26.20
2022-08-05T07:47:58.323Z,26.23
2022-08-05T07:50:29.015Z,25.73
2022-08-05T07:53:00.125Z,25.83
2022-08-05T07:56:05.184Z,25.92
2022-08-05T07:58:55.012Z,25.86
2022-08-05T08:01:00.108Z,25.70
2022-08-05T08:03:44.249Z,25.71
2022-08-05T08:06:11.485Z,25.80
2022-08-05T08:08:38.018Z,25.63
2022-08-05T08:11:04.565Z,25.91
2022-08-05T08:13:49.264Z,26.11
2022-08-05T08:16:49.977Z,26.57
2022-08-05T08:19:08.557Z,26.70
2022-08-05T08:21:55.130Z,26.69
2022-08-05T08:24:21.728Z,26.46
2022-08-05T08:27:08.364Z,26.90
2022-08-05T08:30:05.680Z,26.67
2022-08-05T08:32:27.885Z,26.75
2022-08-05T08:34:54.885Z,26.89
2022-08-05T08:37:28.024Z,26.24
2022-08-05T08:41:51.255Z,25.25
2022-08-05T08:45:23.125Z,25.63
2022-08-05T08:47:34.590Z,25.98
2022-08-05T08:50:05.937Z,26.20
2022-08-05T08:52:42.218Z,26.54
2022-08-05T08:55:14.236Z,26.85
2022-08-05T08:57:58.377Z,27.00
2022-08-05T09:00:25.582Z,27.01
2022-08-05T09:02:54.291Z,27.71
2022-08-05T09:05:38.733Z,28.04
2022-08-05T09:08:09.719Z,27.89
2022-08-05T09:10:36.538Z,27.93
2022-08-05T09:13:07.002Z,28.15
2022-08-05T09:15:37.190Z,28.35
2022-08-05T09:18:07.212Z,28.28
2022-08-05T09:20:38.083Z,28.12
2022-08-05T09:23:18.553Z,28.38
2022-08-05T09:26:01.097Z,28.63
2022-08-05T09:28:32.182Z,28.73
2022-08-05T09:31:18.166Z,28.11
2022-08-05T09:33:56.626Z,28.70
2022-08-05T09:36:27.566Z,28.64
2022-08-05T09:39:16.567Z,28.89
2022-08-05T09:42:04.644Z,28.49
2022-08-05T09:44:42.915Z,28.66
2022-08-05T09:47:12.660Z,29.12
2022-08-05T09:50:00.460Z,29.18
2022-08-05T09:52:35.723Z,29.29
2022-08-05T09:55:58.238Z,29.04
2022-08-05T09:57:54.539Z,28.52
2022-08-05T10:00:25.817Z,27.96
2022-08-05T10:02:58.677Z,28.52
2022-08-05T10:05:29.685Z,28.02
2022-08-05T10:08:35.289Z,28.26
2022-08-05T10:10:54.564Z,28.13
2022-08-05T10:13:45.593Z,27.96
2022-08-05T10:16:41.655Z,27.98
2022-08-05T10:19:11.642Z,28.00
2022-08-05T10:21:40.433Z,28.56
2022-08-05T10:24:12.972Z,28.48
2022-08-05T10:26:51.810Z,28.62
2022-08-05T10:29:24.128Z,28.56
2022-08-05T10:32:53.682Z,28.57
2022-08-05T10:34:58.189Z,28.14
2022-08-05T10:37:41.347Z,28.52
2022-08-05T10:40:20.392Z,28.72
2022-08-05T10:42:58.801Z,28.93
2022-08-05T10:45:39.778Z,28.89
2022-08-05T10:48:56.604Z,28.95
2022-08-05T10:51:28.946Z,28.85
2022-08-05T10:54:00.838Z,28.49
2022-08-05T10:56:45.637Z,28.96
2022-08-05T11:00:03.740Z,29.15
2022-08-05T11:02:14.521Z,29.17
2022-08-05T11:04:57.886Z,29.28
2022-08-05T11:07:33.074Z,29.12
2022-08-05T11:10:22.291Z,29.36
2022-08-05T11:12:55.903Z,29.36
2022-08-05T11:16:00.325Z,28.79
2022-08-05T11:18:25.774Z,28.84
2022-08-05T11:20:52.844Z,28.60
2022-08-05T11:24:03.948Z,29.11
2022-08-05T11:26:32.539Z,29.50
2022-08-05T11:29:06.868Z,29.39
2022-08-05T11:31:58.661Z,29.22
2022-08-05T11:34:52.215Z,29.22
2022-08-05T11:38:29.464Z,29.14
2022-08-05T11:41:14.153Z,29.21
2022-08-05T11:44:11.490Z,29.37
2022-08-05T11:47:09.829Z,29.34
2022-08-05T11:49:39.340Z,28.81
2022-08-05T11:52:11.761Z,29.29
2022-08-05T11:54:40.465Z,29.68
2022-08-05T11:57:25.287Z,29.03
2022-08-05T11:59:54.968Z,29.38
2022-08-05T12:02:30.047Z,29.58
2022-08-05T12:05:06.968Z,29.59
2022-08-05T12:08:08.420Z,29.55
2022-08-05T12:10:38.530Z,29.87
2022-08-05T12:13:28.130Z,29.88
2022-08-05T12:16:14.141Z,30.29
2022-08-05T12:18:42.652Z,30.00
2022-08-05T12:21:18.154Z,30.22
2022-08-05T12:24:32.635Z,29.94
2022-08-05T12:27:01.124Z,29.84
2022-08-05T12:29:38.750Z,29.54
2022-08-05T12:32:07.539Z,29.98
2022-08-05T12:34:37.445Z,30.25
2022-08-05T12:37:10.921Z,30.42
2022-08-05T12:39:51.382Z,31.15
2022-08-05T12:42:20.370Z,30.95
2022-08-05T12:44:47.509Z,30.69
2022-08-05T12:47:25.463Z,30.22
2022-08-05T12:50:03.753Z,30.60
2022-08-05T12:52:39.081Z,30.29
2022-08-05T12:55:25.070Z,30.43
2022-08-05T12:58:49.607Z,30.75
2022-08-05T13:02:02.434Z,30.50
2022-08-05T13:03:35.180Z,30.43
2022-08-05T13:06:11.610Z,31.11
2022-08-05T13:08:38.751Z,31.30
2022-08-05T13:11:07.812Z,31.46
2022-08-05T13:14:06.053Z,31.08
2022-08-05T13:16:24.947Z,31.41
2022-08-05T13:18:57.663Z,31.48
2022-08-05T13:21:27.691Z,31.35
2022-08-05T13:23:55.603Z,31.27
2022-08-05T13:26:27.209Z,31.73
2022-08-05T13:28:57.140Z,32.07
2022-08-05T13:31:34.125Z,32.37
2022-08-05T13:34:24.713Z,32.19
2022-08-05T13:36:52.747Z,31.89
2022-08-05T13:39:24.554Z,32.24
2022-08-05T13:42:06.748Z,32.38
2022-08-05T13:44:34.747Z,32.39
2022-08-05T13:47:08.670Z,32.17
2022-08-05T13:49:35.588Z,32.04
2022-08-05T13:52:13.340Z,31.67
2022-08-05T13:54:40.559Z,31.43
2022-08-05T13:57:09.537Z,31.28
2022-08-05T13:59:37.320Z,31.21
2022-08-05T14:02:26.489Z,31.26
2022-08-05T14:05:11.488Z,31.51
2022-08-05T14:08:00.389Z,30.91
2022-08-05T14:10:28.793Z,30.77
2022-08-05T14:12:57.221Z,30.85
2022-08-05T14:16:05.640Z,30.91
2022-08-05T14:18:14.961Z,31.22
2022-08-05T14:20:46.973Z,31.24
2022-08-05T14:23:23.822Z,31.03
2022-08-05T14:25:58.090Z,30.44
2022-08-05T14:28:28.970Z,30.31
2022-08-05T14:30:56.880Z,30.12
2022-08-05T14:33:24.228Z,29.95
2022-08-05T14:35:52.291Z,29.65
2022-08-05T14:38:32.426Z,29.53
2022-08-05T14:41:01.363Z,29.48
2022-08-05T14:43:59.342Z,29.28
2022-08-05T14:46:14.633Z,29.12
2022-08-05T14:48:41.433Z,28.89
2022-08-05T14:51:08.359Z,28.64
2022-08-05T14:53:44.154Z,28.60
2022-08-05T14:56:11.862Z,28.10
2022-08-05T14:58:47.914Z,27.99
2022-08-05T15:01:24.494Z,27.83
2022-08-05T15:04:09.938Z,27.78
2022-08-05T15:06:38.806Z,27.66
2022-08-05T15:09:07.211Z,27.61
2022-08-05T15:11:51.292Z,27.63
2022-08-05T15:14:35.115Z,27.51
2022-08-05T15:17:04.786Z,27.65
2022-08-05T15:19:32.027Z,27.95
2022-08-05T15:22:01.060Z,28.36
2022-08-05T15:24:28.384Z,28.02
2022-08-05T15:26:55.827Z,28.24
2022-08-05T15:29:22.814Z,28.46
2022-08-05T15:31:52.940Z,28.62
2022-08-05T15:34:32.938Z,25.65
2022-08-05T15:37:06.268Z,24.45
2022-08-05T15:40:58.219Z,24.65
2022-08-05T15:42:53.630Z,24.91
2022-08-05T15:45:14.755Z,24.82
2022-08-05T15:47:42.595Z,25.05
2022-08-05T15:50:15.472Z,25.25
2022-08-05T15:52:53.029Z,25.65
2022-08-05T15:55:24.691Z,25.30
2022-08-05T15:57:52.073Z,25.86
2022-08-05T16:00:26.278Z,26.34
2022-08-05T16:02:59.814Z,26.43
2022-08-05T16:05:28.437Z,27.22
2022-08-05T16:07:55.198Z,27.35
2022-08-05T16:10:25.622Z,27.71
2022-08-05T16:12:53.761Z,27.56
2022-08-05T16:15:23.521Z,27.95
2022-08-05T16:17:58.086Z,27.78
2022-08-05T16:20:28.974Z,28.01
2022-08-05T16:22:59.593Z,28.55
2022-08-05T16:25:33.828Z,28.81
2022-08-05T16:28:10.299Z,28.39
2022-08-05T16:30:37.914Z,28.38
2022-08-05T16:33:07.960Z,28.49
2022-08-05T16:35:42.173Z,27.87
2022-08-05T16:38:23.769Z,26.98
2022-08-05T16:41:00.858Z,26.10
2022-08-05T16:43:31.951Z,25.51
2022-08-05T16:46:05.057Z,25.22
2022-08-05T16:48:41.002Z,25.28
2022-08-05T16:51:12.621Z,25.10
2022-08-05T16:54:04.050Z,25.26
2022-08-05T16:56:36.525Z,25.12
2022-08-05T16:59:21.192Z,24.93
2022-08-05T17:01:54.997Z,24.91
2022-08-05T17:04:27.980Z,24.88
2022-08-05T17:07:01.709Z,24.80
2022-08-05T17:09:38.930Z,24.68
2022-08-05T17:12:18.374Z,24.56
2022-08-05T17:14:50.340Z,24.62
2022-08-05T17:17:20.337Z,24.55
2022-08-05T17:19:55.450Z,24.55
2022-08-05T17:22:26.047Z,24.51
2022-08-05T17:25:02.169Z,24.53
2022-08-05T17:27:38.075Z,24.53
2022-08-05T17:30:19.017Z,24.65
2022-08-05T17:33:01.686Z,24.55
2022-08-05T17:35:32.616Z,24.55
2022-08-05T17:38:18.850Z,24.43
2022-08-05T17:40:47.945Z,24.46
2022-08-05T17:43:46.562Z,24.30
2022-08-05T17:46:07.112Z,24.31
2022-08-05T17:48:39.712Z,24.28
2022-08-05T17:51:12.381Z,24.22
2022-08-05T17:53:42.672Z,24.14
2022-08-05T17:56:17.279Z,24.12
2022-08-05T17:58:45.204Z,24.10
2022-08-05T18:01:15.664Z,24.13
2022-08-05T18:04:04.482Z,24.11
2022-08-05T18:06:41.281Z,24.11
2022-08-05T18:09:18.684Z,23.91
2022-08-05T18:11:52.491Z,23.93
2022-08-05T18:14:20.614Z,23.81
2022-08-05T18:16:51.923Z,23.79
2022-08-05T18:19:22.911Z,23.60
2022-08-05T18:22:09.137Z,23.55
2022-08-05T18:24:41.130Z,23.53
2022-08-05T18:27:18.627Z,23.44
2022-08-05T18:29:53.465Z,23.50
2022-08-05T18:32:28.389Z,23.45
2022-08-05T18:35:01.173Z,23.37
2022-08-05T18:37:34.717Z,23.32
2022-08-05T18:40:34.365Z,23.27
2022-08-05T18:43:00.375Z,23.27
2022-08-05T18:45:40.884Z,23.19
2022-08-05T18:48:11.018Z,23.16
2022-08-05T18:50:57.280Z,23.15
2022-08-05T18:53:34.769Z,22.83
2022-08-05T18:56:12.414Z,22.63
2022-08-05T18:58:39.497Z,22.56
2022-08-05T19:01:09.639Z,22.60
2022-08-05T19:03:55.224Z,22.56
2022-08-05T19:06:34.372Z,22.58
2022-08-05T19:09:09.358Z,22.56
2022-08-05T19:11:59.607Z,22.56
2022-08-05T19:14:53.329Z,22.52
2022-08-05T19:17:12.937Z,22.51
2022-08-05T19:19:46.931Z,22.45
2022-08-05T19:22:17.123Z,22.43
2022-08-05T19:24:54.546Z,22.39
2022-08-05T19:27:27.750Z,22.44
2022-08-05T19:29:57.182Z,22.52
2022-08-05T19:32:26.216Z,22.56
2022-08-05T19:34:55.907Z,22.52
2022-08-05T19:37:35.331Z,22.50
2022-08-05T19:40:10.988Z,22.30
2022-08-05T19:42:38.811Z,22.01
2022-08-05T19:45:07.016Z,21.97
2022-08-05T19:47:34.947Z,21.97
2022-08-05T19:50:04.951Z,21.87
2022-08-05T19:52:34.197Z,21.97
2022-08-05T19:55:06.970Z,22.10
2022-08-05T19:58:19.646Z,22.21
2022-08-05T20:00:36.359Z,22.16
2022-08-05T20:03:05.274Z,22.08
2022-08-05T20:05:43.280Z,22.15
2022-08-05T20:08:16.441Z,22.13
2022-08-05T20:10:43.205Z,22.04
2022-08-05T20:13:10.891Z,21.90
2022-08-05T20:15:51.646Z,21.67
2022-08-05T20:18:33.721Z,21.30
2022-08-05T20:21:04.814Z,20.90
2022-08-05T20:23:40.384Z,20.66
2022-08-05T20:26:23.297Z,20.41
2022-08-05T20:28:55.949Z,20.31
2022-08-05T20:31:36.988Z,20.19
2022-08-05T20:34:10.534Z,20.13
2022-08-05T20:36:39.145Z,19.93
2022-08-05T20:39:10.340Z,19.73
2022-08-05T20:41:43.946Z,19.54
2022-08-05T20:44:17.422Z,19.44
2022-08-05T20:46:46.939Z,19.38
2022-08-05T20:49:13.952Z,19.34
2022-08-05T20:51:40.561Z,19.49
2022-08-05T20:54:07.227Z,19.58
2022-08-05T20:56:42.446Z,19.52
2022-08-05T20:59:15.915Z,19.54
2022-08-05T21:01:46.253Z,19.54
2022-08-05T21:04:13.617Z,19.41
2022-08-05T21:06:45.279Z,19.40
2022-08-05T21:09:12.681Z,19.35
2022-08-05T21:12:06.568Z,19.32
2022-08-05T21:14:27.596Z,19.31
2022-08-05T21:16:55.063Z,19.24
2022-08-05T21:19:21.593Z,19.24
2022-08-05T21:21:50.429Z,19.27
2022-08-05T21:24:19.744Z,19.24
2022-08-05T21:26:53.285Z,19.24
2022-08-05T21:29:26.344Z,19.25
2022-08-05T21:31:58.389Z,19.30
2022-08-05T21:34:24.965Z,19.24
2022-08-05T21:36:51.690Z,19.24
2022-08-05T21:39:26.733Z,19.30
2022-08-05T21:42:01.817Z,19.34
2022-08-05T21:44:29.331Z,19.17
2022-08-05T21:46:58.266Z,19.03
2022-08-05T21:49:48.485Z,18.92
2022-08-05T21:52:15.992Z,18.78
2022-08-05T21:54:54.833Z,18.84
2022-08-05T21:57:31.466Z,18.85
2022-08-05T22:00:11.306Z,18.86
2022-08-05T22:02:41.531Z,18.73
2022-08-05T22:05:09.255Z,18.72
2022-08-05T22:07:40.248Z,18.72
2022-08-05T22:10:26.512Z,18.71
2022-08-05T22:12:58.782Z,18.83
2022-08-05T22:16:00.918Z,18.79
2022-08-05T22:18:13.325Z,18.83
2022-08-05T22:20:41.646Z,18.81
2022-08-05T22:24:02.539Z,18.86
2022-08-05T22:26:53.659Z,18.89
2022-08-05T22:29:26.239Z,18.90
2022-08-05T22:31:55.154Z,18.89
2022-08-05T22:34:28.665Z,18.96
2022-08-05T22:36:58.430Z,18.91
2022-08-05T22:39:32.542Z,18.91
2022-08-05T22:42:09.591Z,18.95
2022-08-05T22:44:38.771Z,18.86
2022-08-05T22:47:06.030Z,18.94
2022-08-05T22:50:18.504Z,19.03
2022-08-05T22:52:32.293Z,19.02
2022-08-05T22:55:01.734Z,19.04
2022-08-05T22:57:36.167Z,19.13
2022-08-05T23:00:06.147Z,19.11
2022-08-05T23:02:35.281Z,19.04
2022-08-05T23:05:14.436Z,19.07
2022-08-05T23:07:45.010Z,19.05
2022-08-05T23:10:16.191Z,19.05
2022-08-05T23:12:47.924Z,19.07
2022-08-05T23:15:18.989Z,19.01
2022-08-05T23:18:00.761Z,19.00
2022-08-05T23:20:29.754Z,18.98
2022-08-05T23:22:56.619Z,18.99
2022-08-05T23:25:52.713Z,18.97
2022-08-05T23:28:12.365Z,18.98
2022-08-05T23:30:39.992Z,18.98
2022-08-05T23:33:16.513Z,18.95
2022-08-05T23:35:55.824Z,18.95
2022-08-05T23:38:24.199Z,18.96
2022-08-05T23:40:52.854Z,18.93
2022-08-05T23:43:24.841Z,18.90
2022-08-05T23:46:03.484Z,18.87
2022-08-05T23:48:30.017Z,18.83
2022-08-05T23:50:56.516Z,18.84
2022-08-05T23:53:28.571Z,18.86
2022-08-05T23:56:11.760Z,18.85
2022-08-05T23:58:38.521Z,18.81
